createdAt,value
2019-05-17T00:00:44.112Z,92.05
2019-05-17T00:03:14.192Z,92.00
2019-05-17T00:05:46.487Z,92.16
2019-05-17T00:08:20.369Z,92.32
2019-05-17T00:10:47.894Z,92.28
2019-05-17T00:13:17.961Z,92.56
2019-05-17T00:15:48.038Z,92.65
2019-05-17T00:18:18.144Z,92.73
2019-05-17T00:20:48.195Z,92.81
2019-05-17T00:23:18.287Z,92.79
2019-05-17T00:25:48.366Z,92.78
2019-05-17T00:28:18.462Z,93.04
2019-05-17T00:30:48.519Z,92.99
2019-05-17T00:33:18.595Z,92.97
2019-05-17T00:35:48.659Z,92.91
2019-05-17T00:38:18.733Z,92.96
2019-05-17T00:40:48.794Z,93.04
2019-05-17T00:43:18.936Z,92.96
2019-05-17T00:45:48.995Z,93.13
2019-05-17T00:48:19.096Z,93.13
2019-05-17T00:50:53.148Z,93.06
2019-05-17T00:53:22.343Z,93.07
2019-05-17T00:55:52.482Z,92.98
2019-05-17T00:58:22.551Z,93.08
2019-05-17T01:00:52.618Z,93.21
2019-05-17T01:03:22.689Z,93.24
2019-05-17T01:05:52.758Z,93.23
2019-05-17T01:08:22.829Z,93.26
2019-05-17T01:10:52.890Z,93.33
2019-05-17T01:13:23.032Z,93.33
2019-05-17T01:15:53.108Z,93.15
2019-05-17T01:18:23.191Z,93.21
2019-05-17T01:20:53.282Z,93.24
2019-05-17T01:23:23.374Z,93.25
2019-05-17T01:25:53.432Z,93.13
2019-05-17T01:28:23.501Z,93.26
2019-05-17T01:30:53.590Z,93.36
2019-05-17T01:33:23.668Z,93.24
2019-05-17T01:35:53.754Z,93.25
2019-05-17T01:38:23.858Z,93.17
2019-05-17T01:40:53.906Z,93.23
2019-05-17T01:43:23.974Z,93.34
2019-05-17T01:45:54.040Z,93.34
2019-05-17T01:48:24.104Z,93.27
2019-05-17T01:50:54.177Z,93.26
2019-05-17T01:53:24.284Z,93.25
2019-05-17T01:55:56.657Z,93.39
2019-05-17T01:58:27.003Z,93.44
2019-05-17T02:00:57.513Z,93.42
2019-05-17T02:03:27.602Z,93.48
2019-05-17T02:05:57.665Z,93.41
2019-05-17T02:08:27.755Z,93.42
2019-05-17T02:10:57.875Z,93.40
2019-05-17T02:13:27.956Z,93.47
2019-05-17T02:15:58.003Z,93.46
2019-05-17T02:18:28.109Z,93.44
2019-05-17T02:20:58.176Z,93.44
2019-05-17T02:23:28.251Z,93.54
2019-05-17T02:25:58.347Z,93.55
2019-05-17T02:28:28.451Z,93.58
2019-05-17T02:30:58.816Z,93.59
2019-05-17T02:33:29.119Z,93.52
2019-05-17T02:35:59.202Z,93.55
2019-05-17T02:38:29.269Z,93.53
2019-05-17T02:41:02.905Z,93.62
2019-05-17T02:43:33.383Z,93.57
2019-05-17T02:46:03.963Z,93.63
2019-05-17T02:48:34.499Z,93.72
2019-05-17T02:51:04.582Z,93.72
2019-05-17T02:53:34.691Z,93.70
2019-05-17T02:56:04.760Z,93.61
2019-05-17T02:58:34.830Z,93.74
2019-05-17T03:01:04.916Z,93.86
2019-05-17T03:03:35.014Z,93.74
2019-05-17T03:06:05.085Z,93.85
2019-05-17T03:08:35.172Z,93.84
2019-05-17T03:11:05.418Z,93.88
2019-05-17T03:13:35.507Z,93.83
2019-05-17T03:16:05.577Z,93.87
2019-05-17T03:18:35.680Z,93.92
2019-05-17T03:21:05.760Z,93.89
2019-05-17T03:23:35.821Z,93.80
2019-05-17T03:26:05.908Z,93.68
2019-05-17T03:28:35.997Z,93.78
2019-05-17T03:31:08.754Z,93.81
2019-05-17T03:33:38.330Z,93.75
2019-05-17T03:36:08.428Z,93.76
2019-05-17T03:38:38.595Z,93.75
2019-05-17T03:41:18.450Z,93.77
2019-05-17T03:43:44.134Z,93.85
2019-05-17T03:46:13.891Z,93.85
2019-05-17T03:48:44.467Z,93.72
2019-05-17T03:51:14.540Z,93.67
2019-05-17T03:53:44.634Z,93.72
2019-05-17T03:56:14.744Z,93.76
2019-05-17T03:58:44.799Z,93.88
2019-05-17T04:01:17.143Z,93.82
2019-05-17T04:03:47.213Z,93.69
2019-05-17T04:06:17.317Z,93.81
2019-05-17T04:08:47.397Z,93.95
2019-05-17T04:11:27.820Z,93.92
2019-05-17T04:13:49.277Z,93.92
2019-05-17T04:16:19.373Z,93.99
2019-05-17T04:18:49.441Z,93.99
2019-05-17T04:21:19.529Z,94.02
2019-05-17T04:23:49.595Z,93.94
2019-05-17T04:26:22.760Z,93.88
2019-05-17T04:28:53.310Z,93.96
2019-05-17T04:31:23.301Z,93.91
2019-05-17T04:33:53.794Z,93.91
2019-05-17T04:36:24.057Z,93.82
2019-05-17T04:38:54.103Z,93.87
2019-05-17T04:41:40.305Z,93.86
2019-05-17T04:43:55.971Z,93.88
2019-05-17T04:46:26.038Z,93.81
2019-05-17T04:48:56.107Z,93.81
2019-05-17T04:51:26.291Z,93.79
2019-05-17T04:53:56.381Z,93.62
2019-05-17T04:56:26.452Z,93.67
2019-05-17T04:58:56.522Z,93.54
2019-05-17T05:01:26.587Z,93.76
2019-05-17T05:03:56.698Z,93.71
2019-05-17T05:06:26.782Z,93.65
2019-05-17T05:08:56.944Z,93.71
2019-05-17T05:11:27.011Z,93.33
2019-05-17T05:13:57.130Z,93.32
2019-05-17T05:16:27.202Z,93.25
2019-05-17T05:18:57.289Z,92.90
2019-05-17T05:21:27.352Z,92.79
2019-05-17T05:23:57.436Z,92.83
2019-05-17T05:26:27.497Z,92.90
2019-05-17T05:28:57.872Z,92.43
2019-05-17T05:31:27.936Z,92.12
2019-05-17T05:33:58.017Z,91.87
2019-05-17T05:36:28.106Z,91.89
2019-05-17T05:38:58.186Z,92.05
2019-05-17T05:41:28.265Z,91.70
2019-05-17T05:43:58.329Z,91.45
2019-05-17T05:46:28.452Z,91.29
2019-05-17T05:48:58.596Z,91.48
2019-05-17T05:51:28.666Z,91.22
2019-05-17T05:53:58.735Z,91.19
2019-05-17T05:56:28.820Z,91.26
2019-05-17T05:58:58.904Z,91.32
2019-05-17T06:01:29.080Z,91.55
2019-05-17T06:03:59.130Z,91.36
2019-05-17T06:06:29.224Z,91.37
2019-05-17T06:08:59.317Z,91.24
2019-05-17T06:11:29.428Z,91.08
2019-05-17T06:14:01.527Z,91.09
2019-05-17T06:16:32.148Z,90.81
2019-05-17T06:19:02.506Z,91.00
2019-05-17T06:21:32.575Z,91.43
2019-05-17T06:24:02.773Z,91.32
2019-05-17T06:26:32.819Z,91.03
2019-05-17T06:29:03.010Z,90.91
2019-05-17T06:31:33.393Z,90.74
2019-05-17T06:34:03.562Z,91.10
2019-05-17T06:36:33.626Z,91.07
2019-05-17T06:39:05.057Z,91.09
2019-05-17T06:41:35.158Z,91.05
2019-05-17T06:44:05.247Z,89.94
2019-05-17T06:46:35.322Z,90.62
2019-05-17T06:49:05.420Z,89.95
2019-05-17T06:51:35.513Z,89.92
2019-05-17T06:54:05.870Z,89.41
2019-05-17T06:56:35.946Z,88.62
2019-05-17T06:59:06.017Z,88.09
2019-05-17T07:01:36.129Z,86.73
2019-05-17T07:04:06.204Z,86.18
2019-05-17T07:06:36.608Z,86.75
2019-05-17T07:09:09.872Z,86.90
2019-05-17T07:11:39.920Z,86.08
2019-05-17T07:14:10.594Z,86.29
2019-05-17T07:16:40.698Z,86.44
2019-05-17T07:19:10.808Z,85.98
2019-05-17T07:21:40.955Z,85.54
2019-05-17T07:24:11.027Z,85.38
2019-05-17T07:26:41.128Z,85.52
2019-05-17T07:29:11.203Z,86.38
2019-05-17T07:31:41.300Z,85.09
2019-05-17T07:34:11.383Z,86.32
2019-05-17T07:36:41.502Z,86.57
2019-05-17T07:39:11.607Z,85.28
2019-05-17T07:41:41.726Z,83.66
2019-05-17T07:44:11.799Z,82.65
2019-05-17T07:46:41.914Z,83.16
2019-05-17T07:49:12.025Z,82.80
2019-05-17T07:51:42.157Z,81.80
2019-05-17T07:54:12.254Z,81.97
2019-05-17T07:56:42.354Z,81.62
2019-05-17T07:59:12.467Z,82.64
2019-05-17T08:01:42.568Z,82.52
2019-05-17T08:04:12.678Z,82.28
2019-05-17T08:06:42.769Z,81.61
2019-05-17T08:09:14.106Z,80.54
2019-05-17T08:11:44.452Z,83.06
2019-05-17T08:14:26.675Z,81.78
2019-05-17T08:16:46.411Z,83.02
2019-05-17T08:19:16.534Z,82.41
2019-05-17T08:21:46.641Z,77.48
2019-05-17T08:24:16.700Z,78.25
2019-05-17T08:26:50.218Z,76.98
2019-05-17T08:29:20.423Z,78.08
2019-05-17T08:31:50.541Z,77.01
2019-05-17T08:34:20.599Z,76.88
2019-05-17T08:36:50.688Z,76.74
2019-05-17T08:39:20.783Z,77.04
2019-05-17T08:41:50.923Z,76.03
2019-05-17T08:44:21.016Z,74.72
2019-05-17T08:46:51.146Z,76.59
2019-05-17T08:49:21.243Z,74.30
2019-05-17T08:51:51.406Z,74.31
2019-05-17T08:54:21.464Z,75.09
2019-05-17T08:56:51.581Z,74.54
2019-05-17T08:59:21.667Z,74.58
2019-05-17T09:01:51.735Z,73.55
2019-05-17T09:04:21.806Z,75.28
2019-05-17T09:06:51.906Z,74.61
2019-05-17T09:09:21.979Z,73.39
2019-05-17T09:11:52.125Z,72.01
2019-05-17T09:14:22.275Z,74.55
2019-05-17T09:16:52.344Z,73.35
2019-05-17T09:19:22.471Z,69.18
2019-05-17T09:21:52.574Z,70.36
2019-05-17T09:24:22.650Z,69.84
2019-05-17T09:26:52.763Z,69.56
2019-05-17T09:29:22.848Z,70.83
2019-05-17T09:31:52.944Z,70.13
2019-05-17T09:34:23.027Z,68.54
2019-05-17T09:36:53.292Z,68.10
2019-05-17T09:39:23.902Z,69.41
2019-05-17T09:41:54.003Z,69.68
2019-05-17T09:44:24.072Z,67.63
2019-05-17T09:46:54.470Z,67.18
2019-05-17T09:49:24.570Z,69.00
2019-05-17T09:51:54.648Z,64.24
2019-05-17T09:54:41.131Z,62.84
2019-05-17T09:56:56.515Z,63.34
2019-05-17T09:59:26.640Z,60.27
2019-05-17T10:01:56.732Z,61.34
2019-05-17T10:04:26.806Z,61.50
2019-05-17T10:06:59.262Z,59.96
2019-05-17T10:09:28.711Z,60.13
2019-05-17T10:12:00.021Z,59.25
2019-05-17T10:14:31.411Z,58.27
2019-05-17T10:17:01.684Z,53.51
2019-05-17T10:19:31.779Z,53.13
2019-05-17T10:22:01.895Z,55.95
2019-05-17T10:24:38.120Z,58.25
2019-05-17T10:27:03.945Z,59.07
2019-05-17T10:29:34.024Z,52.95
2019-05-17T10:32:04.143Z,53.40
2019-05-17T10:34:34.222Z,52.33
2019-05-17T10:37:04.503Z,53.95
2019-05-17T10:39:34.571Z,52.68
2019-05-17T10:42:04.718Z,52.11
2019-05-17T10:44:46.208Z,53.85
2019-05-17T10:47:06.609Z,53.67
2019-05-17T10:49:36.706Z,52.32
2019-05-17T10:52:06.813Z,54.11
2019-05-17T10:54:40.259Z,51.57
2019-05-17T10:57:10.644Z,51.75
2019-05-17T10:59:40.791Z,53.04
2019-05-17T11:02:11.088Z,51.79
2019-05-17T11:04:41.159Z,51.81
2019-05-17T11:07:11.450Z,55.43
2019-05-17T11:09:41.513Z,56.37
2019-05-17T11:12:11.600Z,56.48
2019-05-17T11:14:52.235Z,55.09
2019-05-17T11:17:13.616Z,55.13
2019-05-17T11:19:43.717Z,55.92
2019-05-17T11:22:13.875Z,52.30
2019-05-17T11:24:43.986Z,51.14
2019-05-17T11:27:14.214Z,53.45
2019-05-17T11:29:44.316Z,55.73
2019-05-17T11:32:14.381Z,54.78
2019-05-17T11:34:44.497Z,56.75
2019-05-17T11:37:14.576Z,56.76
2019-05-17T11:39:44.668Z,57.04
2019-05-17T11:42:14.754Z,55.22
2019-05-17T11:44:44.835Z,54.58
2019-05-17T11:47:14.921Z,51.49
2019-05-17T11:49:45.070Z,46.17
2019-05-17T11:52:15.171Z,46.70
2019-05-17T11:54:45.311Z,45.53
2019-05-17T11:57:15.395Z,49.18
2019-05-17T11:59:45.556Z,52.50
2019-05-17T12:02:15.626Z,53.90
2019-05-17T12:04:45.709Z,55.08
2019-05-17T12:07:15.781Z,57.25
2019-05-17T12:09:45.906Z,57.80
2019-05-17T12:12:15.989Z,56.17
2019-05-17T12:14:46.096Z,57.03
2019-05-17T12:17:16.200Z,57.23
2019-05-17T12:19:46.301Z,57.38
2019-05-17T12:22:16.378Z,56.45
2019-05-17T12:24:46.463Z,56.53
2019-05-17T12:27:16.612Z,54.74
2019-05-17T12:29:46.719Z,54.85
2019-05-17T12:32:17.321Z,54.68
2019-05-17T12:34:47.409Z,54.64
2019-05-17T12:37:17.534Z,55.36
2019-05-17T12:39:47.667Z,55.07
2019-05-17T12:42:17.764Z,54.44
2019-05-17T12:44:47.845Z,53.19
2019-05-17T12:47:17.950Z,50.00
2019-05-17T12:49:48.066Z,52.56
2019-05-17T12:52:18.184Z,52.53
2019-05-17T12:54:48.275Z,55.04
2019-05-17T12:57:18.352Z,57.18
2019-05-17T12:59:48.439Z,58.50
2019-05-17T13:02:18.514Z,57.59
2019-05-17T13:04:48.625Z,57.81
2019-05-17T13:07:18.731Z,58.10
2019-05-17T13:09:48.843Z,57.30
2019-05-17T13:12:18.909Z,55.19
2019-05-17T13:14:49.018Z,55.51
2019-05-17T13:17:19.084Z,56.13
2019-05-17T13:19:49.148Z,55.66
2019-05-17T13:22:20.081Z,55.66
2019-05-17T13:24:51.638Z,55.78
2019-05-17T13:27:21.771Z,54.01
2019-05-17T13:29:51.942Z,56.87
2019-05-17T13:32:22.064Z,56.20
2019-05-17T13:34:52.186Z,53.46
2019-05-17T13:37:29.107Z,52.45
2019-05-17T13:39:59.231Z,54.04
2019-05-17T13:42:29.385Z,54.47
2019-05-17T13:44:59.456Z,53.63
2019-05-17T13:47:29.578Z,54.13
2019-05-17T13:49:59.704Z,51.49
2019-05-17T13:52:29.828Z,48.05
2019-05-17T13:54:59.916Z,50.87
2019-05-17T13:57:30.022Z,50.90
2019-05-17T14:00:00.089Z,46.42
2019-05-17T14:02:30.166Z,44.67
2019-05-17T14:05:00.332Z,42.85
2019-05-17T14:07:30.467Z,44.86
2019-05-17T14:10:00.604Z,44.05
2019-05-17T14:12:30.746Z,46.80
2019-05-17T14:15:00.846Z,48.89
2019-05-17T14:17:30.966Z,50.56
2019-05-17T14:20:01.033Z,50.60
2019-05-17T14:22:35.943Z,52.54
2019-05-17T14:25:05.562Z,51.98
2019-05-17T14:27:35.663Z,51.43
2019-05-17T14:30:06.987Z,51.19
2019-05-17T14:32:37.116Z,51.13
2019-05-17T14:35:08.111Z,54.00
2019-05-17T14:37:38.209Z,51.92
2019-05-17T14:40:08.542Z,50.64
2019-05-17T14:42:38.642Z,52.47
2019-05-17T14:45:09.083Z,53.14
2019-05-17T14:47:39.393Z,54.01
2019-05-17T14:50:10.399Z,53.87
2019-05-17T14:52:40.575Z,50.77
2019-05-17T14:55:10.871Z,47.78
2019-05-17T14:57:43.115Z,43.45
2019-05-17T15:00:13.173Z,42.14
2019-05-17T15:02:43.293Z,44.21
2019-05-17T15:05:13.403Z,43.00
2019-05-17T15:07:43.518Z,43.16
2019-05-17T15:10:13.890Z,44.11
2019-05-17T15:12:44.010Z,40.25
2019-05-17T15:15:14.652Z,40.41
2019-05-17T15:17:44.782Z,44.13
2019-05-17T15:20:15.086Z,46.04
2019-05-17T15:22:45.234Z,49.16
2019-05-17T15:25:15.531Z,49.38
2019-05-17T15:27:45.650Z,49.78
2019-05-17T15:30:15.997Z,49.55
2019-05-17T15:32:46.131Z,49.21
2019-05-17T15:35:16.229Z,50.48
2019-05-17T15:37:46.332Z,47.01
2019-05-17T15:40:16.597Z,45.75
2019-05-17T15:42:46.707Z,46.55
2019-05-17T15:45:16.767Z,44.72
2019-05-17T15:47:46.879Z,46.04
2019-05-17T15:50:17.341Z,45.12
2019-05-17T15:52:47.502Z,46.09
2019-05-17T15:55:18.618Z,44.22
2019-05-17T15:57:48.767Z,43.67
2019-05-17T16:00:19.211Z,42.58
2019-05-17T16:02:49.331Z,44.18
2019-05-17T16:05:19.424Z,43.75
2019-05-17T16:07:49.521Z,42.80
2019-05-17T16:10:19.804Z,42.46
2019-05-17T16:13:01.904Z,42.57
2019-05-17T16:15:21.897Z,45.29
2019-05-17T16:18:00.259Z,46.45
2019-05-17T16:20:30.583Z,44.66
2019-05-17T16:23:00.656Z,44.33
2019-05-17T16:25:33.863Z,45.77
2019-05-17T16:28:02.895Z,44.74
2019-05-17T16:30:38.459Z,45.22
2019-05-17T16:33:08.920Z,44.69
2019-05-17T16:35:39.089Z,45.49
2019-05-17T16:38:09.183Z,47.10
2019-05-17T16:40:39.269Z,45.62
2019-05-17T16:43:18.054Z,44.36
2019-05-17T16:45:44.115Z,44.05
2019-05-17T16:48:15.031Z,44.07
2019-05-17T16:50:45.035Z,44.26
2019-05-17T16:53:15.130Z,46.22
2019-05-17T16:55:45.270Z,46.67
2019-05-17T16:58:15.747Z,51.12
2019-05-17T17:00:49.498Z,56.38
2019-05-17T17:03:23.142Z,58.34
2019-05-17T17:05:53.169Z,59.40
2019-05-17T17:08:23.265Z,61.55
2019-05-17T17:10:53.367Z,62.39
2019-05-17T17:13:32.698Z,62.74
2019-05-17T17:15:55.392Z,62.73
2019-05-17T17:18:25.537Z,63.43
2019-05-17T17:20:55.646Z,63.94
2019-05-17T17:23:25.734Z,64.62
2019-05-17T17:25:56.470Z,63.69
2019-05-17T17:28:26.898Z,65.25
2019-05-17T17:30:57.005Z,65.57
2019-05-17T17:33:27.900Z,65.17
2019-05-17T17:35:58.054Z,65.94
2019-05-17T17:38:28.541Z,66.13
2019-05-17T17:40:58.663Z,65.71
2019-05-17T17:43:29.900Z,66.30
2019-05-17T17:45:59.988Z,66.11
2019-05-17T17:48:33.240Z,66.35
2019-05-17T17:51:03.364Z,67.31
2019-05-17T17:53:33.538Z,67.39
2019-05-17T17:56:03.678Z,67.83
2019-05-17T17:58:33.878Z,67.88
2019-05-17T18:01:04.028Z,68.47
2019-05-17T18:03:34.347Z,68.43
2019-05-17T18:06:08.005Z,69.30
2019-05-17T18:08:38.137Z,69.60
2019-05-17T18:11:08.265Z,69.38
2019-05-17T18:13:38.384Z,69.99
2019-05-17T18:16:09.084Z,70.27
2019-05-17T18:18:39.188Z,70.62
2019-05-17T18:21:09.440Z,71.28
2019-05-17T18:23:39.534Z,70.81
2019-05-17T18:26:09.705Z,71.59
2019-05-17T18:28:39.993Z,72.11
2019-05-17T18:31:10.277Z,72.56
2019-05-17T18:33:40.378Z,72.58
2019-05-17T18:36:10.601Z,73.06
2019-05-17T18:38:41.203Z,73.43
2019-05-17T18:41:11.322Z,73.37
2019-05-17T18:43:41.426Z,73.70
2019-05-17T18:46:12.719Z,74.07
2019-05-17T18:48:42.937Z,74.21
2019-05-17T18:51:13.060Z,74.45
2019-05-17T18:53:44.303Z,74.43
2019-05-17T18:56:14.534Z,74.84
2019-05-17T18:58:44.651Z,74.53
2019-05-17T19:01:14.954Z,75.60
2019-05-17T19:03:45.052Z,75.63
2019-05-17T19:06:15.835Z,75.62
2019-05-17T19:08:46.088Z,75.83
2019-05-17T19:11:16.304Z,75.92
2019-05-17T19:13:46.382Z,76.48
2019-05-17T19:16:17.258Z,76.92
2019-05-17T19:18:47.678Z,76.64
2019-05-17T19:21:17.780Z,77.20
2019-05-17T19:23:47.946Z,77.48
2019-05-17T19:26:18.102Z,77.93
2019-05-17T19:28:48.326Z,78.08
2019-05-17T19:31:18.439Z,78.29
2019-05-17T19:33:48.590Z,78.60
2019-05-17T19:36:18.740Z,78.55
2019-05-17T19:38:48.925Z,78.80
2019-05-17T19:41:19.076Z,79.19
2019-05-17T19:43:49.192Z,79.16
2019-05-17T19:46:19.324Z,79.57
2019-05-17T19:48:49.511Z,79.77
2019-05-17T19:51:19.781Z,80.06
2019-05-17T19:53:49.924Z,80.06
2019-05-17T19:56:20.206Z,80.50
2019-05-17T19:58:53.466Z,80.70
2019-05-17T20:01:23.621Z,80.64
2019-05-17T20:03:53.722Z,80.54
2019-05-17T20:06:23.954Z,80.56
2019-05-17T20:08:54.148Z,80.89
2019-05-17T20:11:33.885Z,80.92
2019-05-17T20:13:56.078Z,81.15
2019-05-17T20:16:26.255Z,81.74
2019-05-17T20:18:56.385Z,81.45
2019-05-17T20:21:26.561Z,81.71
2019-05-17T20:23:57.126Z,82.14
2019-05-17T20:26:27.268Z,82.08
2019-05-17T20:28:57.372Z,81.93
2019-05-17T20:31:27.546Z,82.33
2019-05-17T20:33:57.657Z,82.68
2019-05-17T20:36:27.972Z,82.76
2019-05-17T20:38:58.061Z,83.23
2019-05-17T20:41:28.215Z,83.15
2019-05-17T20:43:58.402Z,83.65
2019-05-17T20:46:30.599Z,83.67
2019-05-17T20:49:02.185Z,84.00
2019-05-17T20:51:32.273Z,84.21
2019-05-17T20:54:02.461Z,84.61
2019-05-17T20:56:33.451Z,84.90
2019-05-17T20:59:04.174Z,85.23
2019-05-17T21:01:34.317Z,85.42
2019-05-17T21:04:04.392Z,85.36
2019-05-17T21:06:34.603Z,85.76
2019-05-17T21:09:06.250Z,85.64
2019-05-17T21:11:36.513Z,85.72
2019-05-17T21:14:09.353Z,85.60
2019-05-17T21:16:39.487Z,85.75
2019-05-17T21:19:12.472Z,85.67
2019-05-17T21:21:42.616Z,85.76
2019-05-17T21:24:12.770Z,85.98
2019-05-17T21:26:42.935Z,86.26
2019-05-17T21:29:13.046Z,86.05
2019-05-17T21:31:43.132Z,86.29
2019-05-17T21:34:13.395Z,86.62
2019-05-17T21:36:43.493Z,86.89
2019-05-17T21:39:13.631Z,86.93
2019-05-17T21:41:43.989Z,86.43
2019-05-17T21:44:14.373Z,86.48
2019-05-17T21:46:44.602Z,86.45
2019-05-17T21:49:14.695Z,86.55
2019-05-17T21:51:44.838Z,86.50
2019-05-17T21:54:14.929Z,86.13
2019-05-17T21:56:45.031Z,86.24
2019-05-17T21:59:15.254Z,86.15
2019-05-17T22:01:46.327Z,86.23
2019-05-17T22:04:16.445Z,86.52
2019-05-17T22:06:54.800Z,86.33
2019-05-17T22:09:24.948Z,86.43
2019-05-17T22:11:56.859Z,86.60
2019-05-17T22:14:26.977Z,87.01
2019-05-17T22:16:57.178Z,87.18
2019-05-17T22:19:27.344Z,87.23
2019-05-17T22:21:57.422Z,87.34
2019-05-17T22:24:27.567Z,87.41
2019-05-17T22:26:57.663Z,87.48
2019-05-17T22:29:29.169Z,87.71
2019-05-17T22:31:59.415Z,87.80
2019-05-17T22:34:32.422Z,88.04
2019-05-17T22:37:02.527Z,88.03
2019-05-17T22:39:32.635Z,88.06
2019-05-17T22:42:02.724Z,88.39
2019-05-17T22:44:32.874Z,88.58
2019-05-17T22:47:02.965Z,88.92
2019-05-17T22:49:33.068Z,88.91
2019-05-17T22:52:03.211Z,89.10
2019-05-17T22:54:33.261Z,88.99
2019-05-17T22:57:03.370Z,89.26
2019-05-17T22:59:33.464Z,89.36
2019-05-17T23:02:03.593Z,89.49
2019-05-17T23:04:33.659Z,89.42
2019-05-17T23:07:03.719Z,89.38
2019-05-17T23:09:33.821Z,89.47
2019-05-17T23:12:03.890Z,89.63
2019-05-17T23:14:33.999Z,89.80
2019-05-17T23:17:04.777Z,89.66
2019-05-17T23:19:34.879Z,89.72
2019-05-17T23:22:05.465Z,89.65
2019-05-17T23:24:35.534Z,89.85
2019-05-17T23:27:05.641Z,89.78
2019-05-17T23:29:35.721Z,89.66
2019-05-17T23:32:05.837Z,89.95
2019-05-17T23:34:35.910Z,89.91
2019-05-17T23:37:05.993Z,90.10
2019-05-17T23:39:36.124Z,90.10
2019-05-17T23:42:06.206Z,90.15
2019-05-17T23:44:36.307Z,90.25
2019-05-17T23:47:07.551Z,90.14
2019-05-17T23:49:37.771Z,90.04
2019-05-17T23:52:07.879Z,90.16
2019-05-17T23:54:37.937Z,90.14
2019-05-17T23:57:08.031Z,90.37
2019-05-17T23:59:38.119Z,90.16
